sensor_id;sensor_type;location;lat;lon;timestamp;pressure;altitude;pressure_sealevel;temperature;humidity
47280;BME280;34064;44.942;0.008;2023-03-13T00:01:50;98516.94;;;16.69;68.22
47280;BME280;34064;44.942;0.008;2023-03-13T00:04:18;98511.75;;;16.67;68.30
47280;BME280;34064;44.942;0.008;2023-03-13T00:06:46;98509.25;;;16.66;68.28
47280;BME280;34064;44.942;0.008;2023-03-13T00:09:15;98501.22;;;16.66;68.03
47280;BME280;34064;44.942;0.008;2023-03-13T00:11:44;98504.91;;;16.65;68.15
47280;BME280;34064;44.942;0.008;2023-03-13T00:14:12;98501.84;;;16.60;68.45
47280;BME280;34064;44.942;0.008;2023-03-13T00:16:43;98507.22;;;16.60;68.34
47280;BME280;34064;44.942;0.008;2023-03-13T00:19:10;98493.16;;;16.58;68.23
47280;BME280;34064;44.942;0.008;2023-03-13T00:21:38;98490.28;;;16.59;68.27
47280;BME280;34064;44.942;0.008;2023-03-13T00:24:08;98486.09;;;16.57;68.17
47280;BME280;34064;44.942;0.008;2023-03-13T00:26:36;98480.75;;;16.57;68.20
47280;BME280;34064;44.942;0.008;2023-03-13T00:29:04;98472.69;;;16.57;68.44
47280;BME280;34064;44.942;0.008;2023-03-13T00:31:32;98464.66;;;16.57;68.42
47280;BME280;34064;44.942;0.008;2023-03-13T00:34:03;98463.47;;;16.59;68.21
47280;BME280;34064;44.942;0.008;2023-03-13T00:36:33;98453.59;;;16.60;68.56
47280;BME280;34064;44.942;0.008;2023-03-13T00:39:02;98450.91;;;16.60;68.50
47280;BME280;34064;44.942;0.008;2023-03-13T00:41:31;98448.56;;;16.57;68.85
47280;BME280;34064;44.942;0.008;2023-03-13T00:43:59;98445.53;;;16.60;68.52
47280;BME280;34064;44.942;0.008;2023-03-13T00:46:29;98440.03;;;16.61;68.56
47280;BME280;34064;44.942;0.008;2023-03-13T00:48:57;98434.00;;;16.59;68.55
47280;BME280;34064;44.942;0.008;2023-03-13T00:51:26;98429.44;;;16.60;68.52
47280;BME280;34064;44.942;0.008;2023-03-13T00:53:54;98422.41;;;16.59;68.35
47280;BME280;34064;44.942;0.008;2023-03-13T00:56:21;98405.66;;;16.57;68.30
47280;BME280;34064;44.942;0.008;2023-03-13T00:58:49;98408.84;;;16.52;68.57
47280;BME280;34064;44.942;0.008;2023-03-13T01:01:22;98409.69;;;16.52;68.46
47280;BME280;34064;44.942;0.008;2023-03-13T01:03:54;98411.69;;;16.50;68.35
47280;BME280;34064;44.942;0.008;2023-03-13T01:06:24;98419.03;;;16.48;68.35
47280;BME280;34064;44.942;0.008;2023-03-13T01:08:52;98418.38;;;16.46;68.44
47280;BME280;34064;44.942;0.008;2023-03-13T01:11:24;98407.81;;;16.45;68.44
47280;BME280;34064;44.942;0.008;2023-03-13T01:13:54;98410.66;;;16.43;68.37
47280;BME280;34064;44.942;0.008;2023-03-13T01:16:21;98406.97;;;16.36;68.29
47280;BME280;34064;44.942;0.008;2023-03-13T01:18:51;98411.47;;;16.35;68.36
47280;BME280;34064;44.942;0.008;2023-03-13T01:21:18;98413.13;;;16.28;68.50
47280;BME280;34064;44.942;0.008;2023-03-13T01:23:45;98423.03;;;16.28;68.38
47280;BME280;34064;44.942;0.008;2023-03-13T01:26:12;98418.69;;;16.27;68.21
47280;BME280;34064;44.942;0.008;2023-03-13T01:28:38;98418.16;;;16.23;68.29
47280;BME280;34064;44.942;0.008;2023-03-13T01:31:19;98415.81;;;16.20;68.39
47280;BME280;34064;44.942;0.008;2023-03-13T01:33:48;98411.63;;;16.17;68.22
47280;BME280;34064;44.942;0.008;2023-03-13T01:36:15;98413.63;;;16.15;68.38
47280;BME280;34064;44.942;0.008;2023-03-13T01:38:42;98407.56;;;16.13;68.26
47280;BME280;34064;44.942;0.008;2023-03-13T01:41:10;98407.91;;;16.10;68.17
47280;BME280;34064;44.942;0.008;2023-03-13T01:43:37;98411.91;;;16.06;68.25
47280;BME280;34064;44.942;0.008;2023-03-13T01:51:20;98400.84;;;16.01;68.29
47280;BME280;34064;44.942;0.008;2023-03-13T01:53:53;98390.47;;;15.98;68.13
47280;BME280;34064;44.942;0.008;2023-03-13T01:56:28;98394.44;;;15.94;68.11
47280;BME280;34064;44.942;0.008;2023-03-13T01:58:59;98388.06;;;15.86;68.07
47280;BME280;34064;44.942;0.008;2023-03-13T02:01:26;98382.16;;;15.83;68.35
47280;BME280;34064;44.942;0.008;2023-03-13T02:03:53;98396.03;;;15.78;68.27
47280;BME280;34064;44.942;0.008;2023-03-13T02:06:23;98385.31;;;15.78;68.39
47280;BME280;34064;44.942;0.008;2023-03-13T02:08:57;98379.97;;;15.78;68.34
47280;BME280;34064;44.942;0.008;2023-03-13T02:11:34;98382.44;;;15.71;68.54
47280;BME280;34064;44.942;0.008;2023-03-13T02:14:04;98366.91;;;15.75;68.46
47280;BME280;34064;44.942;0.008;2023-03-13T02:16:33;98370.56;;;15.74;68.61
47280;BME280;34064;44.942;0.008;2023-03-13T02:19:02;98363.53;;;15.73;68.57
47280;BME280;34064;44.942;0.008;2023-03-13T02:21:38;98362.53;;;15.74;68.58
47280;BME280;34064;44.942;0.008;2023-03-13T02:24:17;98352.16;;;15.71;68.63
47280;BME280;34064;44.942;0.008;2023-03-13T02:26:47;98337.44;;;15.75;68.49
47280;BME280;34064;44.942;0.008;2023-03-13T02:29:13;98337.44;;;15.75;68.61
47280;BME280;34064;44.942;0.008;2023-03-13T02:31:47;98334.94;;;15.73;68.74
47280;BME280;34064;44.942;0.008;2023-03-13T02:34:20;98326.91;;;15.73;68.69
47280;BME280;34064;44.942;0.008;2023-03-13T02:36:49;98317.69;;;15.76;68.54
47280;BME280;34064;44.942;0.008;2023-03-13T02:39:17;98312.34;;;15.76;68.65
47280;BME280;34064;44.942;0.008;2023-03-13T02:41:46;98317.84;;;15.66;69.12
47280;BME280;34064;44.942;0.008;2023-03-13T02:44:13;98304.13;;;15.69;68.96
47280;BME280;34064;44.942;0.008;2023-03-13T02:46:50;98309.34;;;15.71;68.91
47280;BME280;34064;44.942;0.008;2023-03-13T02:49:25;98301.13;;;15.72;68.77
47280;BME280;34064;44.942;0.008;2023-03-13T02:51:54;98294.94;;;15.72;68.78
47280;BME280;34064;44.942;0.008;2023-03-13T02:54:31;98300.13;;;15.73;68.87
47280;BME280;34064;44.942;0.008;2023-03-13T02:57:02;98303.63;;;15.74;68.80
47280;BME280;34064;44.942;0.008;2023-03-13T02:59:29;98295.78;;;15.72;68.78
47280;BME280;34064;44.942;0.008;2023-03-13T03:01:55;98293.25;;;15.71;68.87
47280;BME280;34064;44.942;0.008;2023-03-13T03:04:24;98296.94;;;15.70;68.84
47280;BME280;34064;44.942;0.008;2023-03-13T03:06:51;98291.41;;;15.71;68.90
47280;BME280;34064;44.942;0.008;2023-03-13T03:09:19;98304.81;;;15.71;68.64
47280;BME280;34064;44.942;0.008;2023-03-13T03:11:46;98299.75;;;15.68;68.87
47280;BME280;34064;44.942;0.008;2023-03-13T03:14:12;98287.06;;;15.70;68.84
47280;BME280;34064;44.942;0.008;2023-03-13T03:16:39;98281.69;;;15.70;68.67
47280;BME280;34064;44.942;0.008;2023-03-13T03:19:06;98276.53;;;15.69;68.63
47280;BME280;34064;44.942;0.008;2023-03-13T03:21:33;98275.84;;;15.67;68.66
47280;BME280;34064;44.942;0.008;2023-03-13T03:24:00;98270.78;;;15.64;68.75
47280;BME280;34064;44.942;0.008;2023-03-13T03:26:27;98274.50;;;15.63;68.71
47280;BME280;34064;44.942;0.008;2023-03-13T03:28:53;98279.19;;;15.60;68.78
47280;BME280;34064;44.942;0.008;2023-03-13T03:31:20;98273.97;;;15.59;68.54
47280;BME280;34064;44.942;0.008;2023-03-13T03:33:46;98269.78;;;15.56;68.55
47280;BME280;34064;44.942;0.008;2023-03-13T03:36:18;98273.63;;;15.54;68.68
47280;BME280;34064;44.942;0.008;2023-03-13T03:38:45;98279.16;;;15.52;68.40
47280;BME280;34064;44.942;0.008;2023-03-13T03:41:13;98269.59;;;15.50;68.45
47280;BME280;34064;44.942;0.008;2023-03-13T03:43:39;98263.72;;;15.46;68.51
47280;BME280;34064;44.942;0.008;2023-03-13T03:46:06;98259.38;;;15.45;68.53
47280;BME280;34064;44.942;0.008;2023-03-13T03:48:33;98248.00;;;15.43;68.50
47280;BME280;34064;44.942;0.008;2023-03-13T03:50:59;98251.00;;;15.40;68.64
47280;BME280;34064;44.942;0.008;2023-03-13T03:53:26;98250.31;;;15.38;68.49
47280;BME280;34064;44.942;0.008;2023-03-13T03:55:53;98244.97;;;15.38;68.49
47280;BME280;34064;44.942;0.008;2023-03-13T03:58:19;98239.59;;;15.38;68.35
47280;BME280;34064;44.942;0.008;2023-03-13T04:00:46;98230.91;;;15.36;68.44
47280;BME280;34064;44.942;0.008;2023-03-13T04:03:14;98231.72;;;15.28;68.54
47280;BME280;34064;44.942;0.008;2023-03-13T04:05:41;98231.56;;;15.29;68.60
47280;BME280;34064;44.942;0.008;2023-03-13T04:08:08;98243.44;;;15.27;68.67
47280;BME280;34064;44.942;0.008;2023-03-13T04:10:34;98240.59;;;15.28;68.60
47280;BME280;34064;44.942;0.008;2023-03-13T04:13:01;98250.59;;;15.26;68.64
47280;BME280;34064;44.942;0.008;2023-03-13T04:15:28;98245.25;;;15.26;68.45
47280;BME280;34064;44.942;0.008;2023-03-13T04:17:55;98238.38;;;15.24;68.52
47280;BME280;34064;44.942;0.008;2023-03-13T04:20:22;98234.03;;;15.23;68.43
47280;BME280;34064;44.942;0.008;2023-03-13T04:22:50;98222.69;;;15.21;68.48
47280;BME280;34064;44.942;0.008;2023-03-13T04:25:17;98233.53;;;15.19;68.49
47280;BME280;34064;44.942;0.008;2023-03-13T04:27:43;98228.81;;;15.13;68.37
47280;BME280;34064;44.942;0.008;2023-03-13T04:30:10;98228.16;;;15.11;68.39
47280;BME280;34064;44.942;0.008;2023-03-13T04:32:36;98222.97;;;15.09;68.41
47280;BME280;34064;44.942;0.008;2023-03-13T04:35:03;98222.28;;;15.07;68.46
47280;BME280;34064;44.942;0.008;2023-03-13T04:37:29;98223.59;;;15.03;68.42
47280;BME280;34064;44.942;0.008;2023-03-13T04:39:56;98225.75;;;15.00;68.39
47280;BME280;34064;44.942;0.008;2023-03-13T04:42:23;98222.06;;;15.01;68.41
47280;BME280;34064;44.942;0.008;2023-03-13T04:44:49;98217.38;;;14.94;68.47
47280;BME280;34064;44.942;0.008;2023-03-13T04:47:16;98224.25;;;14.97;68.35
47280;BME280;34064;44.942;0.008;2023-03-13T04:49:42;98211.03;;;14.95;68.20
47280;BME280;34064;44.942;0.008;2023-03-13T04:52:08;98201.66;;;14.91;68.25
47280;BME280;34064;44.942;0.008;2023-03-13T04:54:35;98201.94;;;14.88;68.31
47280;BME280;34064;44.942;0.008;2023-03-13T04:57:01;98203.97;;;14.86;68.21
47280;BME280;34064;44.942;0.008;2023-03-13T04:59:27;98197.78;;;14.86;68.32
47280;BME280;34064;44.942;0.008;2023-03-13T05:01:54;98190.91;;;14.83;68.14
47280;BME280;34064;44.942;0.008;2023-03-13T05:04:20;98187.91;;;14.78;68.19
47280;BME280;34064;44.942;0.008;2023-03-13T05:06:46;98186.03;;;14.78;68.24
47280;BME280;34064;44.942;0.008;2023-03-13T05:09:13;98183.69;;;14.75;68.28
47280;BME280;34064;44.942;0.008;2023-03-13T05:11:39;98192.88;;;14.73;68.30
47280;BME280;34064;44.942;0.008;2023-03-13T05:14:07;98183.84;;;14.74;68.28
47280;BME280;34064;44.942;0.008;2023-03-13T05:16:36;98183.03;;;14.73;68.49
47280;BME280;34064;44.942;0.008;2023-03-13T05:19:03;98183.16;;;14.72;68.41
47280;BME280;34064;44.942;0.008;2023-03-13T05:21:29;98178.81;;;14.71;68.48
47280;BME280;34064;44.942;0.008;2023-03-13T05:23:55;98177.13;;;14.70;68.31
47280;BME280;34064;44.942;0.008;2023-03-13T05:26:22;98170.41;;;14.65;68.47
47280;BME280;34064;44.942;0.008;2023-03-13T05:28:49;98165.06;;;14.65;68.21
47280;BME280;34064;44.942;0.008;2023-03-13T05:31:16;98160.88;;;14.63;68.44
47280;BME280;34064;44.942;0.008;2023-03-13T05:33:42;98160.72;;;14.64;68.39
47280;BME280;34064;44.942;0.008;2023-03-13T05:36:09;98153.00;;;14.61;68.19
47280;BME280;34064;44.942;0.008;2023-03-13T05:38:35;98147.66;;;14.61;68.28
47280;BME280;34064;44.942;0.008;2023-03-13T05:41:02;98144.34;;;14.59;68.32
47280;BME280;34064;44.942;0.008;2023-03-13T05:43:29;98137.31;;;14.58;68.41
47280;BME280;34064;44.942;0.008;2023-03-13T05:45:56;98131.28;;;14.56;68.47
47280;BME280;34064;44.942;0.008;2023-03-13T05:48:27;98123.25;;;14.56;68.44
47280;BME280;34064;44.942;0.008;2023-03-13T05:50:54;98119.59;;;14.57;68.64
47280;BME280;34064;44.942;0.008;2023-03-13T05:53:22;98110.88;;;14.55;68.51
47280;BME280;34064;44.942;0.008;2023-03-13T05:55:49;98103.56;;;14.57;68.57
47280;BME280;34064;44.942;0.008;2023-03-13T05:58:17;98100.53;;;14.60;68.52
47280;BME280;34064;44.942;0.008;2023-03-13T06:00:44;98095.38;;;14.59;68.49
47280;BME280;34064;44.942;0.008;2023-03-13T06:03:12;98092.53;;;14.60;68.40
47280;BME280;34064;44.942;0.008;2023-03-13T06:05:39;98088.81;;;14.53;68.80
47280;BME280;34064;44.942;0.008;2023-03-13T06:08:07;98087.84;;;14.54;68.95
47280;BME280;34064;44.942;0.008;2023-03-13T06:10:34;98076.16;;;14.55;68.72
47280;BME280;34064;44.942;0.008;2023-03-13T06:13:02;98064.78;;;14.53;68.69
47280;BME280;34064;44.942;0.008;2023-03-13T06:15:29;98074.66;;;14.53;68.86
47280;BME280;34064;44.942;0.008;2023-03-13T06:17:56;98071.81;;;14.54;68.92
47280;BME280;34064;44.942;0.008;2023-03-13T06:20:23;98072.47;;;14.56;68.75
47280;BME280;34064;44.942;0.008;2023-03-13T06:22:50;98080.50;;;14.56;68.84
47280;BME280;34064;44.942;0.008;2023-03-13T06:25:17;98073.47;;;14.55;68.96
47280;BME280;34064;44.942;0.008;2023-03-13T06:27:45;98069.81;;;14.56;68.82
47280;BME280;34064;44.942;0.008;2023-03-13T06:30:12;98060.94;;;14.56;68.93
47280;BME280;34064;44.942;0.008;2023-03-13T06:32:40;98058.13;;;14.57;68.87
47280;BME280;34064;44.942;0.008;2023-03-13T06:35:08;98070.81;;;14.55;68.98
47280;BME280;34064;44.942;0.008;2023-03-13T06:37:35;98068.97;;;14.56;69.07
47280;BME280;34064;44.942;0.008;2023-03-13T06:40:03;98069.63;;;14.58;69.03
47280;BME280;34064;44.942;0.008;2023-03-13T06:42:32;98074.00;;;14.59;68.90
47280;BME280;34064;44.942;0.008;2023-03-13T06:44:59;98079.84;;;14.62;68.91
47280;BME280;34064;44.942;0.008;2023-03-13T06:47:31;98072.81;;;14.61;68.72
47280;BME280;34064;44.942;0.008;2023-03-13T06:49:58;98076.19;;;14.63;68.85
47280;BME280;34064;44.942;0.008;2023-03-13T06:52:24;98075.34;;;14.63;68.93
47280;BME280;34064;44.942;0.008;2023-03-13T06:54:50;98071.69;;;14.64;69.15
47280;BME280;34064;44.942;0.008;2023-03-13T06:57:17;98057.19;;;14.66;68.79
47280;BME280;34064;44.942;0.008;2023-03-13T06:59:43;98048.16;;;14.68;68.71
47280;BME280;34064;44.942;0.008;2023-03-13T07:02:11;98049.84;;;14.69;68.78
47280;BME280;34064;44.942;0.008;2023-03-13T07:04:38;98054.50;;;14.66;68.82
47280;BME280;34064;44.942;0.008;2023-03-13T07:07:04;98051.94;;;14.65;68.95
47280;BME280;34064;44.942;0.008;2023-03-13T07:09:31;98049.16;;;14.66;68.73
47280;BME280;34064;44.942;0.008;2023-03-13T07:11:57;98049.84;;;14.69;68.82
47280;BME280;34064;44.942;0.008;2023-03-13T07:14:24;98053.53;;;14.68;68.87
47280;BME280;34064;44.942;0.008;2023-03-13T07:16:51;98053.84;;;14.73;68.70
47280;BME280;34064;44.942;0.008;2023-03-13T07:19:17;98046.19;;;14.78;68.67
47280;BME280;34064;44.942;0.008;2023-03-13T07:21:43;98047.03;;;14.78;68.88
47280;BME280;34064;44.942;0.008;2023-03-13T07:24:11;98047.22;;;14.85;68.46
47280;BME280;34064;44.942;0.008;2023-03-13T07:26:38;98044.88;;;14.90;68.67
47280;BME280;34064;44.942;0.008;2023-03-13T07:29:04;98033.38;;;14.98;68.39
47280;BME280;34064;44.942;0.008;2023-03-13T07:31:31;98029.53;;;15.01;68.50
47280;BME280;34064;44.942;0.008;2023-03-13T07:33:59;98023.50;;;15.07;68.39
47280;BME280;34064;44.942;0.008;2023-03-13T07:36:25;98016.50;;;15.14;68.51
47280;BME280;34064;44.942;0.008;2023-03-13T07:38:52;98009.47;;;15.21;68.57
47280;BME280;34064;44.942;0.008;2023-03-13T07:41:19;97994.44;;;15.28;68.83
47280;BME280;34064;44.942;0.008;2023-03-13T07:43:46;97982.03;;;15.36;68.52
47280;BME280;34064;44.942;0.008;2023-03-13T07:46:14;97979.22;;;15.46;68.51
47280;BME280;34064;44.942;0.008;2023-03-13T07:48:42;97976.69;;;15.52;68.25
47280;BME280;34064;44.942;0.008;2023-03-13T07:51:16;97968.78;;;15.59;68.63
47280;BME280;34064;44.942;0.008;2023-03-13T07:53:44;97973.50;;;15.65;68.48
47280;BME280;34064;44.942;0.008;2023-03-13T07:56:14;97970.13;;;15.71;68.19
47280;BME280;34064;44.942;0.008;2023-03-13T07:58:42;97962.06;;;15.80;68.25
47280;BME280;34064;44.942;0.008;2023-03-13T08:01:21;97973.97;;;15.85;68.31
47280;BME280;34064;44.942;0.008;2023-03-13T08:03:48;97968.94;;;15.90;68.20
47280;BME280;34064;44.942;0.008;2023-03-13T08:06:18;97951.19;;;15.98;68.25
47280;BME280;34064;44.942;0.008;2023-03-13T08:08:46;97947.78;;;16.04;68.18
47280;BME280;34064;44.942;0.008;2023-03-13T08:11:14;97953.47;;;16.09;68.18
47280;BME280;34064;44.942;0.008;2023-03-13T08:13:42;97942.06;;;16.15;68.27
47280;BME280;34064;44.942;0.008;2023-03-13T08:16:11;97930.28;;;16.25;68.05
47280;BME280;34064;44.942;0.008;2023-03-13T08:18:40;97920.91;;;16.29;68.04
47280;BME280;34064;44.942;0.008;2023-03-13T08:21:09;97916.50;;;16.36;68.32
47280;BME280;34064;44.942;0.008;2023-03-13T08:23:36;97914.13;;;16.41;68.19
47280;BME280;34064;44.942;0.008;2023-03-13T08:26:17;97921.75;;;16.52;68.14
47280;BME280;34064;44.942;0.008;2023-03-13T08:28:45;97911.28;;;16.66;68.03
47280;BME280;34064;44.942;0.008;2023-03-13T08:31:17;97907.22;;;16.70;67.82
47280;BME280;34064;44.942;0.008;2023-03-13T08:33:46;97914.38;;;16.78;67.82
47280;BME280;34064;44.942;0.008;2023-03-13T08:36:15;97910.31;;;16.82;67.69
47280;BME280;34064;44.942;0.008;2023-03-13T08:38:43;97911.41;;;16.96;67.82
47280;BME280;34064;44.942;0.008;2023-03-13T08:41:18;97909.63;;;17.11;67.40
47280;BME280;34064;44.942;0.008;2023-03-13T08:43:45;97901.50;;;17.20;67.25
47280;BME280;34064;44.942;0.008;2023-03-13T08:46:12;97893.38;;;17.28;67.34
47280;BME280;34064;44.942;0.008;2023-03-13T08:48:38;97887.34;;;17.41;67.28
47280;BME280;34064;44.942;0.008;2023-03-13T08:51:13;97870.25;;;17.57;67.06
47280;BME280;34064;44.942;0.008;2023-03-13T08:53:42;97857.28;;;17.75;66.78
47280;BME280;34064;44.942;0.008;2023-03-13T08:56:10;97854.31;;;17.85;66.61
47280;BME280;34064;44.942;0.008;2023-03-13T08:58:37;97847.66;;;17.96;66.52
47280;BME280;34064;44.942;0.008;2023-03-13T09:01:09;97844.06;;;18.11;66.19
47280;BME280;34064;44.942;0.008;2023-03-13T09:03:37;97825.63;;;18.22;66.19
47280;BME280;34064;44.942;0.008;2023-03-13T09:06:04;97807.50;;;18.31;65.99
47280;BME280;34064;44.942;0.008;2023-03-13T09:08:31;97792.03;;;18.55;65.65
47280;BME280;34064;44.942;0.008;2023-03-13T09:11:18;97796.91;;;18.73;65.39
47280;BME280;34064;44.942;0.008;2023-03-13T09:13:46;97793.91;;;18.90;65.09
47280;BME280;34064;44.942;0.008;2023-03-13T09:16:18;97775.81;;;18.98;64.40
47280;BME280;34064;44.942;0.008;2023-03-13T09:18:45;97776.25;;;19.02;64.12
47280;BME280;34064;44.942;0.008;2023-03-13T09:21:16;97774.19;;;19.04;63.81
47280;BME280;34064;44.942;0.008;2023-03-13T09:23:42;97773.34;;;19.04;64.09
47280;BME280;34064;44.942;0.008;2023-03-13T09:26:09;97766.72;;;18.99;63.39
47280;BME280;34064;44.942;0.008;2023-03-13T09:28:36;97763.63;;;19.02;64.04
47280;BME280;34064;44.942;0.008;2023-03-13T09:31:16;97758.47;;;19.08;64.12
47280;BME280;34064;44.942;0.008;2023-03-13T09:33:44;97754.38;;;19.12;64.16
47280;BME280;34064;44.942;0.008;2023-03-13T09:36:11;97746.09;;;19.13;64.27
47280;BME280;34064;44.942;0.008;2023-03-13T09:38:38;97745.72;;;19.16;64.27
47280;BME280;34064;44.942;0.008;2023-03-13T09:41:33;97752.16;;;19.22;63.75
47280;BME280;34064;44.942;0.008;2023-03-13T09:47:25;97746.66;;;19.44;62.76
47280;BME280;34064;44.942;0.008;2023-03-13T09:50:25;97732.22;;;19.65;62.60
47280;BME280;34064;44.942;0.008;2023-03-13T09:53:05;97728.16;;;19.83;62.68
47280;BME280;34064;44.942;0.008;2023-03-13T09:55:37;97712.25;;;20.08;61.42
47280;BME280;34064;44.942;0.008;2023-03-13T09:58:20;97694.66;;;20.12;61.84
47280;BME280;34064;44.942;0.008;2023-03-13T10:00:56;97691.75;;;20.20;61.38
47280;BME280;34064;44.942;0.008;2023-03-13T10:03:38;97696.09;;;20.21;61.41
47280;BME280;34064;44.942;0.008;2023-03-13T10:06:16;97694.66;;;20.39;60.56
47280;BME280;34064;44.942;0.008;2023-03-13T10:08:43;97684.91;;;20.45;60.56
47280;BME280;34064;44.942;0.008;2023-03-13T10:11:34;97679.91;;;20.48;60.66
47280;BME280;34064;44.942;0.008;2023-03-13T10:14:18;97673.72;;;20.54;60.58
47280;BME280;34064;44.942;0.008;2023-03-13T10:19:30;97658.75;;;20.58;60.74
47280;BME280;34064;44.942;0.008;2023-03-13T10:21:57;97653.13;;;20.60;60.60
47280;BME280;34064;44.942;0.008;2023-03-13T10:24:33;97643.59;;;20.64;61.10
47280;BME280;34064;44.942;0.008;2023-03-13T10:27:00;97631.97;;;20.77;60.78
47280;BME280;34064;44.942;0.008;2023-03-13T10:29:29;97629.03;;;20.85;60.09
47280;BME280;34064;44.942;0.008;2023-03-13T10:32:05;97627.75;;;20.95;59.91
47280;BME280;34064;44.942;0.008;2023-03-13T10:34:57;97626.28;;;20.99;59.73
47280;BME280;34064;44.942;0.008;2023-03-13T10:37:27;97612.72;;;21.12;58.66
47280;BME280;34064;44.942;0.008;2023-03-13T10:40:04;97603.97;;;21.24;58.72
47280;BME280;34064;44.942;0.008;2023-03-13T10:42:41;97601.19;;;21.37;58.66
47280;BME280;34064;44.942;0.008;2023-03-13T10:45:18;97581.75;;;21.54;58.41
47280;BME280;34064;44.942;0.008;2023-03-13T10:47:49;97583.56;;;21.66;57.92
47280;BME280;34064;44.942;0.008;2023-03-13T10:50:24;97585.72;;;21.83;58.18
47280;BME280;34064;44.942;0.008;2023-03-13T10:52:52;97577.00;;;22.06;57.54
47280;BME280;34064;44.942;0.008;2023-03-13T10:55:21;97567.88;;;22.26;57.00
47280;BME280;34064;44.942;0.008;2023-03-13T10:58:03;97573.16;;;22.46;56.64
47280;BME280;34064;44.942;0.008;2023-03-13T11:00:37;97555.69;;;22.61;56.06
47280;BME280;34064;44.942;0.008;2023-03-13T11:03:17;97539.06;;;22.75;55.81
47280;BME280;34064;44.942;0.008;2023-03-13T11:06:00;97540.09;;;22.93;56.25
47280;BME280;34064;44.942;0.008;2023-03-13T11:08:36;97542.03;;;23.04;56.41
47280;BME280;34064;44.942;0.008;2023-03-13T11:11:05;97533.38;;;23.14;55.68
47280;BME280;34064;44.942;0.008;2023-03-13T11:13:43;97530.19;;;23.17;54.74
47280;BME280;34064;44.942;0.008;2023-03-13T11:16:17;97521.91;;;23.19;54.09
47280;BME280;34064;44.942;0.008;2023-03-13T11:22:13;97519.38;;;23.17;53.63
47280;BME280;34064;44.942;0.008;2023-03-13T11:27:35;97499.81;;;23.46;53.21
47280;BME280;34064;44.942;0.008;2023-03-13T11:30:24;97482.72;;;23.45;53.20
47280;BME280;34064;44.942;0.008;2023-03-13T11:38:38;97466.16;;;23.65;52.88
47280;BME280;34064;44.942;0.008;2023-03-13T11:41:24;97468.16;;;23.70;52.88
47280;BME280;34064;44.942;0.008;2023-03-13T11:47:00;97459.44;;;23.56;51.86
47280;BME280;34064;44.942;0.008;2023-03-13T11:50:03;97456.47;;;23.46;53.11
47280;BME280;34064;44.942;0.008;2023-03-13T11:58:31;97452.91;;;23.33;53.14
47280;BME280;34064;44.942;0.008;2023-03-13T12:01:12;97437.00;;;23.37;53.33
47280;BME280;34064;44.942;0.008;2023-03-13T12:03:52;97443.72;;;23.34;53.78
47280;BME280;34064;44.942;0.008;2023-03-13T12:09:09;97431.72;;;23.42;53.26
47280;BME280;34064;44.942;0.008;2023-03-13T12:14:38;97424.41;;;23.43;53.74
47280;BME280;34064;44.942;0.008;2023-03-13T12:17:23;97427.00;;;23.49;53.38
47280;BME280;34064;44.942;0.008;2023-03-13T12:26:50;97396.94;;;24.10;51.63
47280;BME280;34064;44.942;0.008;2023-03-13T12:29:42;97380.09;;;24.37;51.54
47280;BME280;34064;44.942;0.008;2023-03-13T12:32:12;97358.03;;;24.63;51.58
47280;BME280;34064;44.942;0.008;2023-03-13T12:38:40;97343.22;;;24.82;49.43
47280;BME280;34064;44.942;0.008;2023-03-13T12:43:27;97354.47;;;24.74;47.51
47280;BME280;34064;44.942;0.008;2023-03-13T12:49:01;97322.56;;;24.98;45.98
47280;BME280;34064;44.942;0.008;2023-03-13T12:59:55;97300.38;;;25.58;45.96
47280;BME280;34064;44.942;0.008;2023-03-13T13:02:26;97313.72;;;25.59;46.33
47280;BME280;34064;44.942;0.008;2023-03-13T13:04:58;97325.41;;;25.60;46.36
47280;BME280;34064;44.942;0.008;2023-03-13T13:07:33;97320.84;;;25.43;45.93
47280;BME280;34064;44.942;0.008;2023-03-13T13:10:16;97325.44;;;25.26;47.22
47280;BME280;34064;44.942;0.008;2023-03-13T13:12:46;97347.69;;;25.22;46.54
47280;BME280;34064;44.942;0.008;2023-03-13T13:15:25;97341.97;;;25.24;45.98
47280;BME280;34064;44.942;0.008;2023-03-13T13:23:25;97365.25;;;24.69;44.52
47280;BME280;34064;44.942;0.008;2023-03-13T13:25:54;97357.63;;;24.54;44.07
47280;BME280;34064;44.942;0.008;2023-03-13T13:28:32;97360.38;;;24.42;43.70
47280;BME280;34064;44.942;0.008;2023-03-13T13:30:58;97363.97;;;24.30;42.38
47280;BME280;34064;44.942;0.008;2023-03-13T13:38:41;97369.47;;;24.07;40.15
47280;BME280;34064;44.942;0.008;2023-03-13T13:43:40;97359.25;;;23.97;39.63
47280;BME280;34064;44.942;0.008;2023-03-13T13:46:27;97353.91;;;23.90;38.82
47280;BME280;34064;44.942;0.008;2023-03-13T13:51:32;97340.44;;;24.19;39.83
47280;BME280;34064;44.942;0.008;2023-03-13T13:56:51;97296.66;;;24.73;39.09
47280;BME280;34064;44.942;0.008;2023-03-13T13:59:26;97292.38;;;24.95;38.17
47280;BME280;34064;44.942;0.008;2023-03-13T14:07:46;97299.84;;;25.21;37.67
47280;BME280;34064;44.942;0.008;2023-03-13T14:10:37;97296.00;;;25.17;38.59
47280;BME280;34064;44.942;0.008;2023-03-13T14:13:19;97298.78;;;25.22;37.63
47280;BME280;34064;44.942;0.008;2023-03-13T14:15:50;97303.28;;;25.34;38.43
47280;BME280;34064;44.942;0.008;2023-03-13T14:18:29;97297.78;;;25.46;38.82
47280;BME280;34064;44.942;0.008;2023-03-13T14:23:51;97302.22;;;25.35;37.97
47280;BME280;34064;44.942;0.008;2023-03-13T14:26:23;97306.59;;;25.36;38.13
47280;BME280;34064;44.942;0.008;2023-03-13T14:28:58;97303.19;;;25.29;39.39
47280;BME280;34064;44.942;0.008;2023-03-13T14:31:36;97317.84;;;25.28;39.85
47280;BME280;34064;44.942;0.008;2023-03-13T14:34:08;97311.94;;;25.31;40.13
47280;BME280;34064;44.942;0.008;2023-03-13T14:36:56;97321.31;;;25.23;40.42
47280;BME280;34064;44.942;0.008;2023-03-13T14:42:11;97308.00;;;25.21;40.74
47280;BME280;34064;44.942;0.008;2023-03-13T14:44:37;97302.56;;;25.21;40.80
47280;BME280;34064;44.942;0.008;2023-03-13T14:47:22;97316.56;;;25.13;40.47
47280;BME280;34064;44.942;0.008;2023-03-13T14:49:56;97307.50;;;25.07;40.02